createdAt,value
2023-04-21T00:08:21.791Z,15.00
2023-04-21T00:18:48.649Z,20.50
2023-04-21T00:29:14.226Z,19.80
2023-04-21T00:39:39.800Z,27.50
2023-04-21T00:50:06.550Z,27.90
2023-04-21T01:00:33.270Z,32.70
2023-04-21T01:10:59.172Z,22.60
2023-04-21T01:21:25.178Z,20.90
2023-04-21T01:31:50.783Z,27.10
2023-04-21T01:42:16.895Z,20.50
2023-04-21T01:52:42.690Z,21.90
2023-04-21T02:03:09.069Z,24.10
2023-04-21T02:13:34.807Z,31.50
2023-04-21T02:24:00.515Z,27.10
2023-04-21T02:34:46.807Z,44.00
2023-04-21T02:45:14.389Z,36.40
2023-04-21T02:55:39.878Z,27.60
2023-04-21T03:06:07.642Z,26.80
2023-04-21T03:16:33.777Z,18.70
2023-04-21T03:26:59.907Z,21.00
2023-04-21T03:37:26.094Z,16.50
2023-04-21T03:47:54.009Z,29.80
2023-04-21T03:58:20.005Z,34.20
2023-04-21T04:08:45.674Z,28.90
2023-04-21T04:19:12.535Z,30.80
2023-04-21T04:29:38.236Z,23.20
2023-04-21T04:40:06.461Z,19.70
2023-04-21T04:50:32.316Z,26.60
2023-04-21T05:00:57.755Z,29.10
2023-04-21T05:11:23.770Z,22.60
2023-04-21T05:21:50.029Z,29.00
2023-04-21T05:32:16.153Z,30.90
2023-04-21T05:42:41.691Z,27.00
2023-04-21T05:53:07.401Z,29.50
2023-04-21T06:03:35.162Z,26.20
2023-04-21T06:14:01.936Z,23.70
2023-04-21T06:24:35.125Z,22.40
2023-04-21T06:35:00.907Z,27.40
2023-04-21T06:45:27.480Z,22.00
2023-04-21T06:55:53.811Z,22.60
2023-04-21T07:06:19.764Z,16.70
2023-04-21T07:16:45.774Z,26.90
2023-04-21T07:27:11.349Z,19.90
2023-04-21T07:37:37.210Z,20.40
2023-04-21T07:48:02.942Z,18.80
2023-04-21T07:58:29.073Z,21.20
2023-04-21T08:08:56.121Z,13.70
2023-04-21T08:19:22.319Z,11.70
2023-04-21T08:29:50.737Z,13.20
2023-04-21T08:40:35.990Z,12.40
2023-04-21T08:51:03.046Z,12.70
2023-04-21T09:01:28.640Z,14.10
2023-04-21T09:12:00.150Z,11.10
2023-04-21T09:22:30.569Z,10.20
2023-04-21T09:32:59.558Z,15.00
2023-04-21T09:43:25.050Z,10.20
2023-04-21T09:53:54.306Z,9.70
2023-04-21T10:04:21.880Z,7.10
2023-04-21T10:14:51.500Z,7.80
2023-04-21T10:25:17.325Z,8.50
2023-04-21T10:36:05.111Z,9.70
2023-04-21T10:57:03.368Z,8.20
2023-04-21T11:07:29.546Z,7.60
2023-04-21T11:17:55.892Z,11.50
2023-04-21T11:28:24.891Z,9.00
2023-04-21T11:38:51.375Z,9.10
2023-04-21T11:49:18.518Z,7.50
2023-04-21T11:59:46.548Z,9.20
2023-04-21T12:10:14.760Z,9.10
2023-04-21T12:20:40.453Z,7.20
2023-04-21T12:31:06.451Z,8.60
2023-04-21T12:41:32.190Z,7.40
2023-04-21T12:51:57.631Z,6.40
2023-04-21T13:02:23.825Z,8.30
2023-04-21T13:12:49.369Z,6.40
2023-04-21T13:23:16.405Z,7.80
2023-04-21T13:33:42.923Z,7.30
2023-04-21T13:44:08.793Z,6.10
2023-04-21T13:54:35.081Z,8.70
2023-04-21T14:05:01.188Z,7.50
2023-04-21T14:15:27.308Z,7.00
2023-04-21T14:25:54.810Z,6.80
2023-04-21T14:36:21.196Z,8.30
2023-04-21T14:46:53.732Z,6.50
2023-04-21T14:57:32.028Z,8.70
2023-04-21T15:07:57.651Z,7.60
2023-04-21T15:18:23.545Z,4.60
2023-04-21T15:28:49.512Z,5.80
2023-04-21T15:39:15.589Z,6.30
2023-04-21T15:49:41.589Z,5.30
2023-04-21T16:00:10.414Z,5.40
2023-04-21T16:10:36.297Z,6.50
2023-04-21T16:21:02.521Z,5.60
2023-04-21T16:31:28.297Z,5.50
2023-04-21T16:41:54.308Z,9.60
2023-04-21T16:52:20.240Z,4.80
2023-04-21T17:02:46.379Z,7.10
2023-04-21T17:13:12.398Z,6.50
2023-04-21T17:23:38.565Z,6.20
2023-04-21T17:34:04.514Z,7.70
2023-04-21T17:44:30.077Z,6.40
2023-04-21T17:54:56.163Z,8.10
2023-04-21T18:05:21.695Z,6.20
2023-04-21T18:15:47.702Z,8.00
2023-04-21T18:26:13.800Z,6.10
2023-04-21T18:36:39.894Z,7.60
2023-04-21T18:47:06.265Z,7.70
2023-04-21T18:57:32.235Z,9.00
2023-04-21T19:07:58.141Z,7.60
2023-04-21T19:18:24.123Z,10.60
2023-04-21T19:28:49.710Z,11.90
2023-04-21T19:39:16.087Z,12.10
2023-04-21T19:49:42.278Z,16.20
2023-04-21T20:00:11.915Z,12.80
2023-04-21T20:10:42.135Z,12.40
2023-04-21T20:21:08.216Z,15.70
2023-04-21T20:31:34.521Z,16.00
2023-04-21T20:42:12.424Z,15.50
2023-04-21T20:52:41.103Z,15.30
2023-04-21T21:03:10.199Z,11.70
2023-04-21T21:13:36.335Z,13.10
2023-04-21T21:24:02.174Z,15.10
2023-04-21T21:34:28.302Z,30.00
2023-04-21T21:44:53.827Z,14.70
2023-04-21T21:55:19.745Z,13.60
2023-04-21T22:05:46.071Z,17.40
2023-04-21T22:16:11.871Z,16.10
2023-04-21T22:26:37.824Z,15.40
2023-04-21T22:37:05.660Z,16.00
2023-04-21T22:47:31.359Z,16.90
2023-04-21T22:57:57.027Z,15.90
2023-04-21T23:08:23.121Z,15.40
2023-04-21T23:18:48.867Z,14.20
2023-04-21T23:29:14.629Z,17.00
2023-04-21T23:39:40.689Z,15.80
2023-04-21T23:50:07.251Z,19.60
